sensor_id;sensor_type;location;lat;lon;timestamp;P1;durP1;ratioP1;P2;durP2;ratioP2
75772;SDS011;64381;0.000;0.000;2023-06-22T00:01:49;10.73;;;4.30;;
75772;SDS011;64381;0.000;0.000;2023-06-22T00:04:14;8.93;;;3.63;;
75772;SDS011;64381;0.000;0.000;2023-06-22T00:06:39;9.97;;;3.27;;
75772;SDS011;64381;0.000;0.000;2023-06-22T00:09:04;8.53;;;3.33;;
75772;SDS011;64381;0.000;0.000;2023-06-22T00:11:29;8.27;;;3.43;;
75772;SDS011;64381;0.000;0.000;2023-06-22T00:13:55;9.70;;;3.63;;
75772;SDS011;64381;0.000;0.000;2023-06-22T00:16:20;8.33;;;3.47;;
75772;SDS011;64381;0.000;0.000;2023-06-22T00:18:45;8.63;;;3.37;;
75772;SDS011;64381;0.000;0.000;2023-06-22T00:21:10;7.97;;;3.03;;
75772;SDS011;64381;0.000;0.000;2023-06-22T00:23:35;7.77;;;3.23;;
75772;SDS011;64381;0.000;0.000;2023-06-22T00:26:01;10.47;;;3.37;;
75772;SDS011;64381;0.000;0.000;2023-06-22T00:28:26;8.47;;;3.10;;
75772;SDS011;64381;0.000;0.000;2023-06-22T00:30:51;7.70;;;3.17;;
75772;SDS011;64381;0.000;0.000;2023-06-22T00:33:16;8.80;;;3.47;;
75772;SDS011;64381;0.000;0.000;2023-06-22T00:35:41;8.27;;;3.47;;
75772;SDS011;64381;0.000;0.000;2023-06-22T00:38:07;7.93;;;3.27;;
75772;SDS011;64381;0.000;0.000;2023-06-22T00:40:32;8.83;;;3.53;;
75772;SDS011;64381;0.000;0.000;2023-06-22T00:42:58;8.73;;;3.40;;
75772;SDS011;64381;0.000;0.000;2023-06-22T00:45:24;6.80;;;3.27;;
75772;SDS011;64381;0.000;0.000;2023-06-22T00:47:50;7.18;;;3.20;;
75772;SDS011;64381;0.000;0.000;2023-06-22T00:50:18;8.25;;;3.40;;
75772;SDS011;64381;0.000;0.000;2023-06-22T00:52:45;7.70;;;2.97;;
75772;SDS011;64381;0.000;0.000;2023-06-22T00:55:11;9.90;;;3.92;;
75772;SDS011;64381;0.000;0.000;2023-06-22T00:57:37;7.57;;;2.93;;
75772;SDS011;64381;0.000;0.000;2023-06-22T01:00:02;8.67;;;3.37;;
75772;SDS011;64381;0.000;0.000;2023-06-22T01:02:28;8.75;;;3.35;;
75772;SDS011;64381;0.000;0.000;2023-06-22T01:04:53;7.20;;;3.10;;
75772;SDS011;64381;0.000;0.000;2023-06-22T01:12:27;9.18;;;3.50;;
75772;SDS011;64381;0.000;0.000;2023-06-22T01:15:09;7.05;;;2.95;;
75772;SDS011;64381;0.000;0.000;2023-06-22T01:17:39;6.30;;;2.93;;
75772;SDS011;64381;0.000;0.000;2023-06-22T01:20:08;8.05;;;3.42;;
75772;SDS011;64381;0.000;0.000;2023-06-22T01:22:38;8.40;;;3.38;;
75772;SDS011;64381;0.000;0.000;2023-06-22T01:25:12;7.43;;;3.17;;
75772;SDS011;64381;0.000;0.000;2023-06-22T01:30:45;7.73;;;3.00;;
75772;SDS011;64381;0.000;0.000;2023-06-22T01:33:11;9.05;;;2.97;;
75772;SDS011;64381;0.000;0.000;2023-06-22T01:35:38;7.85;;;3.38;;
75772;SDS011;64381;0.000;0.000;2023-06-22T01:38:03;7.22;;;2.85;;
75772;SDS011;64381;0.000;0.000;2023-06-22T01:40:29;8.87;;;3.20;;
75772;SDS011;64381;0.000;0.000;2023-06-22T01:42:56;8.13;;;3.20;;
75772;SDS011;64381;0.000;0.000;2023-06-22T01:45:22;7.33;;;2.97;;
75772;SDS011;64381;0.000;0.000;2023-06-22T01:47:47;8.93;;;3.13;;
75772;SDS011;64381;0.000;0.000;2023-06-22T01:50:13;7.00;;;2.80;;
75772;SDS011;64381;0.000;0.000;2023-06-22T01:52:38;6.73;;;2.70;;
75772;SDS011;64381;0.000;0.000;2023-06-22T01:55:03;8.13;;;3.23;;
75772;SDS011;64381;0.000;0.000;2023-06-22T01:57:29;8.13;;;3.15;;
75772;SDS011;64381;0.000;0.000;2023-06-22T01:59:59;7.37;;;2.80;;
75772;SDS011;64381;0.000;0.000;2023-06-22T02:02:33;7.45;;;3.03;;
75772;SDS011;64381;0.000;0.000;2023-06-22T02:05:07;9.10;;;3.30;;
75772;SDS011;64381;0.000;0.000;2023-06-22T02:07:35;6.82;;;2.90;;
75772;SDS011;64381;0.000;0.000;2023-06-22T02:10:06;7.90;;;3.38;;
75772;SDS011;64381;0.000;0.000;2023-06-22T02:12:32;7.32;;;3.35;;
75772;SDS011;64381;0.000;0.000;2023-06-22T02:14:59;7.10;;;2.72;;
75772;SDS011;64381;0.000;0.000;2023-06-22T02:17:26;8.30;;;3.27;;
75772;SDS011;64381;0.000;0.000;2023-06-22T02:19:51;6.60;;;2.80;;
75772;SDS011;64381;0.000;0.000;2023-06-22T02:22:17;6.77;;;3.13;;
75772;SDS011;64381;0.000;0.000;2023-06-22T02:24:42;6.87;;;2.90;;
75772;SDS011;64381;0.000;0.000;2023-06-22T02:27:07;8.67;;;3.10;;
75772;SDS011;64381;0.000;0.000;2023-06-22T02:29:32;6.90;;;2.80;;
75772;SDS011;64381;0.000;0.000;2023-06-22T02:31:57;7.57;;;3.07;;
75772;SDS011;64381;0.000;0.000;2023-06-22T02:34:23;8.73;;;3.40;;
75772;SDS011;64381;0.000;0.000;2023-06-22T02:36:48;7.32;;;3.00;;
75772;SDS011;64381;0.000;0.000;2023-06-22T02:39:14;7.77;;;2.83;;
75772;SDS011;64381;0.000;0.000;2023-06-22T02:41:39;6.97;;;2.73;;
75772;SDS011;64381;0.000;0.000;2023-06-22T02:44:04;7.90;;;2.73;;
75772;SDS011;64381;0.000;0.000;2023-06-22T02:46:29;6.60;;;2.70;;
75772;SDS011;64381;0.000;0.000;2023-06-22T02:48:55;6.87;;;2.83;;
75772;SDS011;64381;0.000;0.000;2023-06-22T02:51:20;6.47;;;2.50;;
75772;SDS011;64381;0.000;0.000;2023-06-22T02:53:45;6.93;;;3.10;;
75772;SDS011;64381;0.000;0.000;2023-06-22T02:56:10;7.57;;;3.13;;
75772;SDS011;64381;0.000;0.000;2023-06-22T02:58:36;6.70;;;2.70;;
75772;SDS011;64381;0.000;0.000;2023-06-22T03:01:01;7.23;;;2.73;;
75772;SDS011;64381;0.000;0.000;2023-06-22T03:03:26;6.60;;;2.83;;
75772;SDS011;64381;0.000;0.000;2023-06-22T03:05:51;7.87;;;2.83;;
75772;SDS011;64381;0.000;0.000;2023-06-22T03:08:16;6.67;;;3.00;;
75772;SDS011;64381;0.000;0.000;2023-06-22T03:10:41;8.60;;;3.83;;
75772;SDS011;64381;0.000;0.000;2023-06-22T03:13:07;7.33;;;3.47;;
75772;SDS011;64381;0.000;0.000;2023-06-22T03:15:32;5.33;;;2.30;;
75772;SDS011;64381;0.000;0.000;2023-06-22T03:17:57;7.87;;;3.47;;
75772;SDS011;64381;0.000;0.000;2023-06-22T03:20:22;8.43;;;3.43;;
75772;SDS011;64381;0.000;0.000;2023-06-22T03:22:48;6.47;;;2.83;;
75772;SDS011;64381;0.000;0.000;2023-06-22T03:25:13;7.33;;;2.70;;
75772;SDS011;64381;0.000;0.000;2023-06-22T03:27:38;5.87;;;2.80;;
75772;SDS011;64381;0.000;0.000;2023-06-22T03:30:05;6.85;;;2.75;;
75772;SDS011;64381;0.000;0.000;2023-06-22T03:32:32;6.90;;;2.70;;
75772;SDS011;64381;0.000;0.000;2023-06-22T03:34:57;7.10;;;3.00;;
75772;SDS011;64381;0.000;0.000;2023-06-22T03:37:22;6.27;;;3.23;;
75772;SDS011;64381;0.000;0.000;2023-06-22T03:39:47;7.70;;;3.13;;
75772;SDS011;64381;0.000;0.000;2023-06-22T03:42:13;6.13;;;2.80;;
75772;SDS011;64381;0.000;0.000;2023-06-22T03:44:38;7.30;;;2.90;;
75772;SDS011;64381;0.000;0.000;2023-06-22T03:47:04;6.27;;;3.00;;
75772;SDS011;64381;0.000;0.000;2023-06-22T03:49:29;5.88;;;2.53;;
75772;SDS011;64381;0.000;0.000;2023-06-22T03:51:54;7.23;;;2.63;;
75772;SDS011;64381;0.000;0.000;2023-06-22T03:54:19;6.97;;;3.00;;
75772;SDS011;64381;0.000;0.000;2023-06-22T03:56:45;7.03;;;3.00;;
75772;SDS011;64381;0.000;0.000;2023-06-22T03:59:10;6.83;;;3.00;;
75772;SDS011;64381;0.000;0.000;2023-06-22T04:01:35;5.63;;;2.47;;
75772;SDS011;64381;0.000;0.000;2023-06-22T04:04:00;6.40;;;2.93;;
75772;SDS011;64381;0.000;0.000;2023-06-22T04:06:25;6.27;;;2.70;;
75772;SDS011;64381;0.000;0.000;2023-06-22T04:08:51;6.73;;;2.80;;
75772;SDS011;64381;0.000;0.000;2023-06-22T04:11:16;7.37;;;3.10;;
75772;SDS011;64381;0.000;0.000;2023-06-22T04:13:42;5.90;;;2.70;;
75772;SDS011;64381;0.000;0.000;2023-06-22T04:16:08;6.13;;;2.63;;
75772;SDS011;64381;0.000;0.000;2023-06-22T04:18:33;6.73;;;2.83;;
75772;SDS011;64381;0.000;0.000;2023-06-22T04:20:58;7.80;;;2.73;;
75772;SDS011;64381;0.000;0.000;2023-06-22T04:23:23;6.10;;;2.83;;
75772;SDS011;64381;0.000;0.000;2023-06-22T04:25:49;6.63;;;3.17;;
75772;SDS011;64381;0.000;0.000;2023-06-22T04:28:14;7.00;;;3.00;;
75772;SDS011;64381;0.000;0.000;2023-06-22T04:30:39;6.50;;;2.60;;
75772;SDS011;64381;0.000;0.000;2023-06-22T04:33:04;7.43;;;2.70;;
75772;SDS011;64381;0.000;0.000;2023-06-22T04:35:29;5.60;;;2.53;;
75772;SDS011;64381;0.000;0.000;2023-06-22T04:37:57;5.70;;;2.83;;
75772;SDS011;64381;0.000;0.000;2023-06-22T04:40:23;7.05;;;2.42;;
75772;SDS011;64381;0.000;0.000;2023-06-22T04:42:48;6.73;;;2.63;;
75772;SDS011;64381;0.000;0.000;2023-06-22T04:45:13;7.17;;;2.77;;
75772;SDS011;64381;0.000;0.000;2023-06-22T04:47:39;6.17;;;2.27;;
75772;SDS011;64381;0.000;0.000;2023-06-22T04:50:04;6.00;;;2.90;;
75772;SDS011;64381;0.000;0.000;2023-06-22T04:52:29;7.17;;;2.80;;
75772;SDS011;64381;0.000;0.000;2023-06-22T04:54:55;6.20;;;2.90;;
75772;SDS011;64381;0.000;0.000;2023-06-22T04:57:20;6.87;;;2.70;;
75772;SDS011;64381;0.000;0.000;2023-06-22T04:59:45;6.80;;;2.50;;
75772;SDS011;64381;0.000;0.000;2023-06-22T05:02:10;6.87;;;2.60;;
75772;SDS011;64381;0.000;0.000;2023-06-22T05:04:36;7.00;;;2.57;;
75772;SDS011;64381;0.000;0.000;2023-06-22T05:07:01;6.03;;;2.60;;
75772;SDS011;64381;0.000;0.000;2023-06-22T05:09:27;6.13;;;2.90;;
75772;SDS011;64381;0.000;0.000;2023-06-22T05:11:56;5.28;;;2.47;;
75772;SDS011;64381;0.000;0.000;2023-06-22T05:14:21;5.50;;;2.50;;
75772;SDS011;64381;0.000;0.000;2023-06-22T05:16:46;6.67;;;2.90;;
75772;SDS011;64381;0.000;0.000;2023-06-22T05:19:11;5.87;;;2.50;;
75772;SDS011;64381;0.000;0.000;2023-06-22T05:21:37;7.20;;;3.07;;
75772;SDS011;64381;0.000;0.000;2023-06-22T05:24:02;6.60;;;2.90;;
75772;SDS011;64381;0.000;0.000;2023-06-22T05:26:28;7.23;;;3.07;;
75772;SDS011;64381;0.000;0.000;2023-06-22T05:28:55;5.55;;;2.63;;
75772;SDS011;64381;0.000;0.000;2023-06-22T05:31:20;6.40;;;2.90;;
75772;SDS011;64381;0.000;0.000;2023-06-22T05:33:46;5.75;;;2.55;;
75772;SDS011;64381;0.000;0.000;2023-06-22T05:36:12;5.97;;;2.60;;
75772;SDS011;64381;0.000;0.000;2023-06-22T05:38:38;5.90;;;2.40;;
75772;SDS011;64381;0.000;0.000;2023-06-22T05:41:04;6.13;;;2.78;;
75772;SDS011;64381;0.000;0.000;2023-06-22T05:43:29;5.20;;;2.90;;
75772;SDS011;64381;0.000;0.000;2023-06-22T05:45:54;9.83;;;2.80;;
75772;SDS011;64381;0.000;0.000;2023-06-22T05:48:20;6.83;;;2.87;;
75772;SDS011;64381;0.000;0.000;2023-06-22T05:50:45;13.37;;;3.07;;
75772;SDS011;64381;0.000;0.000;2023-06-22T05:53:10;12.10;;;2.90;;
75772;SDS011;64381;0.000;0.000;2023-06-22T05:55:35;9.00;;;2.70;;
75772;SDS011;64381;0.000;0.000;2023-06-22T05:58:01;12.30;;;2.97;;
75772;SDS011;64381;0.000;0.000;2023-06-22T06:00:26;10.57;;;3.30;;
75772;SDS011;64381;0.000;0.000;2023-06-22T06:02:51;11.53;;;3.07;;
75772;SDS011;64381;0.000;0.000;2023-06-22T06:05:16;6.93;;;2.97;;
75772;SDS011;64381;0.000;0.000;2023-06-22T06:07:42;8.63;;;3.07;;
75772;SDS011;64381;0.000;0.000;2023-06-22T06:10:08;9.13;;;3.05;;
75772;SDS011;64381;0.000;0.000;2023-06-22T06:12:34;8.85;;;2.70;;
75772;SDS011;64381;0.000;0.000;2023-06-22T06:14:59;10.83;;;2.70;;
75772;SDS011;64381;0.000;0.000;2023-06-22T06:17:25;10.00;;;3.30;;
75772;SDS011;64381;0.000;0.000;2023-06-22T06:19:50;13.83;;;3.17;;
75772;SDS011;64381;0.000;0.000;2023-06-22T06:22:15;10.83;;;3.67;;
75772;SDS011;64381;0.000;0.000;2023-06-22T06:24:40;6.80;;;2.80;;
75772;SDS011;64381;0.000;0.000;2023-06-22T06:27:05;9.87;;;2.83;;
75772;SDS011;64381;0.000;0.000;2023-06-22T06:29:31;8.80;;;3.20;;
75772;SDS011;64381;0.000;0.000;2023-06-22T06:31:57;10.27;;;3.13;;
75772;SDS011;64381;0.000;0.000;2023-06-22T06:34:22;9.57;;;3.00;;
75772;SDS011;64381;0.000;0.000;2023-06-22T06:36:47;8.63;;;2.60;;
75772;SDS011;64381;0.000;0.000;2023-06-22T06:39:12;6.93;;;2.80;;
75772;SDS011;64381;0.000;0.000;2023-06-22T06:41:38;9.27;;;3.10;;
75772;SDS011;64381;0.000;0.000;2023-06-22T06:44:03;11.43;;;3.70;;
75772;SDS011;64381;0.000;0.000;2023-06-22T06:46:28;8.00;;;3.53;;
75772;SDS011;64381;0.000;0.000;2023-06-22T06:48:54;8.73;;;2.70;;
75772;SDS011;64381;0.000;0.000;2023-06-22T06:51:19;10.07;;;3.07;;
75772;SDS011;64381;0.000;0.000;2023-06-22T06:53:44;10.07;;;3.47;;
75772;SDS011;64381;0.000;0.000;2023-06-22T06:56:09;7.30;;;2.50;;
75772;SDS011;64381;0.000;0.000;2023-06-22T06:58:35;7.67;;;3.20;;
75772;SDS011;64381;0.000;0.000;2023-06-22T07:01:00;8.03;;;3.17;;
75772;SDS011;64381;0.000;0.000;2023-06-22T07:03:25;8.40;;;3.30;;
75772;SDS011;64381;0.000;0.000;2023-06-22T07:05:50;7.00;;;2.90;;
75772;SDS011;64381;0.000;0.000;2023-06-22T07:08:16;5.47;;;2.50;;
75772;SDS011;64381;0.000;0.000;2023-06-22T07:10:41;5.90;;;2.73;;
75772;SDS011;64381;0.000;0.000;2023-06-22T07:13:06;6.43;;;2.50;;
75772;SDS011;64381;0.000;0.000;2023-06-22T07:15:32;7.60;;;2.70;;
75772;SDS011;64381;0.000;0.000;2023-06-22T07:17:57;7.60;;;2.63;;
75772;SDS011;64381;0.000;0.000;2023-06-22T07:20:22;6.10;;;2.47;;
75772;SDS011;64381;0.000;0.000;2023-06-22T07:22:47;7.60;;;2.67;;
75772;SDS011;64381;0.000;0.000;2023-06-22T07:25:13;8.10;;;2.90;;
75772;SDS011;64381;0.000;0.000;2023-06-22T07:27:39;6.67;;;2.70;;
75772;SDS011;64381;0.000;0.000;2023-06-22T07:30:08;9.05;;;2.85;;
75772;SDS011;64381;0.000;0.000;2023-06-22T07:32:34;6.95;;;2.70;;
75772;SDS011;64381;0.000;0.000;2023-06-22T07:35:00;6.17;;;3.30;;
75772;SDS011;64381;0.000;0.000;2023-06-22T07:37:25;6.13;;;2.60;;
75772;SDS011;64381;0.000;0.000;2023-06-22T07:39:50;6.50;;;2.70;;
75772;SDS011;64381;0.000;0.000;2023-06-22T07:42:16;6.43;;;3.00;;
75772;SDS011;64381;0.000;0.000;2023-06-22T07:44:41;6.57;;;2.87;;
75772;SDS011;64381;0.000;0.000;2023-06-22T07:47:06;6.83;;;2.70;;
75772;SDS011;64381;0.000;0.000;2023-06-22T07:49:32;8.23;;;2.60;;
75772;SDS011;64381;0.000;0.000;2023-06-22T07:51:57;7.23;;;2.80;;
75772;SDS011;64381;0.000;0.000;2023-06-22T07:54:22;8.13;;;2.90;;
75772;SDS011;64381;0.000;0.000;2023-06-22T07:56:47;6.37;;;2.60;;
75772;SDS011;64381;0.000;0.000;2023-06-22T07:59:12;6.47;;;2.50;;
75772;SDS011;64381;0.000;0.000;2023-06-22T08:01:38;7.40;;;2.67;;
75772;SDS011;64381;0.000;0.000;2023-06-22T08:04:03;6.97;;;2.63;;
75772;SDS011;64381;0.000;0.000;2023-06-22T08:06:29;7.10;;;2.80;;
75772;SDS011;64381;0.000;0.000;2023-06-22T08:08:55;6.35;;;2.72;;
75772;SDS011;64381;0.000;0.000;2023-06-22T08:11:21;6.83;;;2.87;;
75772;SDS011;64381;0.000;0.000;2023-06-22T08:13:46;7.73;;;2.87;;
75772;SDS011;64381;0.000;0.000;2023-06-22T08:16:11;5.50;;;2.47;;
75772;SDS011;64381;0.000;0.000;2023-06-22T08:18:37;7.70;;;3.33;;
75772;SDS011;64381;0.000;0.000;2023-06-22T08:21:02;5.83;;;2.80;;
75772;SDS011;64381;0.000;0.000;2023-06-22T08:23:28;5.73;;;2.33;;
75772;SDS011;64381;0.000;0.000;2023-06-22T08:25:53;5.63;;;2.67;;
75772;SDS011;64381;0.000;0.000;2023-06-22T08:28:22;5.47;;;2.67;;
75772;SDS011;64381;0.000;0.000;2023-06-22T08:30:50;6.07;;;3.42;;
75772;SDS011;64381;0.000;0.000;2023-06-22T08:33:16;5.88;;;2.92;;
75772;SDS011;64381;0.000;0.000;2023-06-22T08:35:41;5.03;;;2.67;;
75772;SDS011;64381;0.000;0.000;2023-06-22T08:38:06;5.77;;;2.77;;
75772;SDS011;64381;0.000;0.000;2023-06-22T08:40:32;6.67;;;2.70;;
75772;SDS011;64381;0.000;0.000;2023-06-22T08:42:57;6.27;;;2.80;;
75772;SDS011;64381;0.000;0.000;2023-06-22T08:45:23;4.65;;;2.45;;
75772;SDS011;64381;0.000;0.000;2023-06-22T08:47:48;7.40;;;2.60;;
75772;SDS011;64381;0.000;0.000;2023-06-22T08:50:14;7.77;;;2.70;;
75772;SDS011;64381;0.000;0.000;2023-06-22T08:52:42;5.38;;;2.60;;
75772;SDS011;64381;0.000;0.000;2023-06-22T08:55:07;5.37;;;2.80;;
75772;SDS011;64381;0.000;0.000;2023-06-22T08:57:33;6.15;;;2.70;;
75772;SDS011;64381;0.000;0.000;2023-06-22T08:59:58;5.70;;;2.77;;
75772;SDS011;64381;0.000;0.000;2023-06-22T09:02:25;6.13;;;2.60;;
75772;SDS011;64381;0.000;0.000;2023-06-22T09:04:50;5.43;;;2.70;;
75772;SDS011;64381;0.000;0.000;2023-06-22T09:07:16;6.27;;;2.60;;
75772;SDS011;64381;0.000;0.000;2023-06-22T09:09:41;7.70;;;3.20;;
75772;SDS011;64381;0.000;0.000;2023-06-22T09:12:07;6.40;;;2.80;;
75772;SDS011;64381;0.000;0.000;2023-06-22T09:14:32;4.78;;;2.53;;
75772;SDS011;64381;0.000;0.000;2023-06-22T09:16:58;6.97;;;2.93;;
75772;SDS011;64381;0.000;0.000;2023-06-22T09:19:23;6.23;;;2.73;;
75772;SDS011;64381;0.000;0.000;2023-06-22T09:21:48;5.90;;;2.63;;
75772;SDS011;64381;0.000;0.000;2023-06-22T09:24:14;6.17;;;2.80;;
75772;SDS011;64381;0.000;0.000;2023-06-22T09:26:39;4.63;;;2.40;;
75772;SDS011;64381;0.000;0.000;2023-06-22T09:29:05;6.77;;;2.60;;
75772;SDS011;64381;0.000;0.000;2023-06-22T09:31:33;5.57;;;2.38;;
75772;SDS011;64381;0.000;0.000;2023-06-22T09:33:58;5.60;;;2.80;;
75772;SDS011;64381;0.000;0.000;2023-06-22T09:36:24;6.00;;;2.70;;
75772;SDS011;64381;0.000;0.000;2023-06-22T09:38:49;6.50;;;2.90;;
75772;SDS011;64381;0.000;0.000;2023-06-22T09:41:14;5.45;;;2.60;;
75772;SDS011;64381;0.000;0.000;2023-06-22T09:43:40;5.53;;;3.10;;
75772;SDS011;64381;0.000;0.000;2023-06-22T09:46:05;6.23;;;2.90;;
75772;SDS011;64381;0.000;0.000;2023-06-22T09:48:30;5.83;;;2.70;;
75772;SDS011;64381;0.000;0.000;2023-06-22T09:50:56;5.20;;;2.60;;
75772;SDS011;64381;0.000;0.000;2023-06-22T09:53:21;6.03;;;2.70;;
75772;SDS011;64381;0.000;0.000;2023-06-22T09:55:46;6.60;;;3.00;;
75772;SDS011;64381;0.000;0.000;2023-06-22T09:58:12;6.03;;;2.70;;
75772;SDS011;64381;0.000;0.000;2023-06-22T10:00:37;5.77;;;2.50;;
75772;SDS011;64381;0.000;0.000;2023-06-22T10:03:02;5.40;;;2.70;;
75772;SDS011;64381;0.000;0.000;2023-06-22T10:05:28;5.95;;;2.97;;
75772;SDS011;64381;0.000;0.000;2023-06-22T10:07:53;6.87;;;3.10;;
75772;SDS011;64381;0.000;0.000;2023-06-22T10:10:18;5.90;;;2.77;;
75772;SDS011;64381;0.000;0.000;2023-06-22T10:12:45;6.17;;;2.83;;
75772;SDS011;64381;0.000;0.000;2023-06-22T10:15:11;6.63;;;2.80;;
75772;SDS011;64381;0.000;0.000;2023-06-22T10:17:37;5.47;;;2.85;;
75772;SDS011;64381;0.000;0.000;2023-06-22T10:20:02;6.20;;;2.67;;
75772;SDS011;64381;0.000;0.000;2023-06-22T10:22:28;5.43;;;2.93;;
75772;SDS011;64381;0.000;0.000;2023-06-22T10:24:53;7.10;;;3.23;;
75772;SDS011;64381;0.000;0.000;2023-06-22T10:27:18;6.13;;;3.10;;
75772;SDS011;64381;0.000;0.000;2023-06-22T10:29:43;6.97;;;2.80;;
75772;SDS011;64381;0.000;0.000;2023-06-22T10:32:09;6.00;;;2.90;;
75772;SDS011;64381;0.000;0.000;2023-06-22T10:34:34;6.10;;;2.83;;
75772;SDS011;64381;0.000;0.000;2023-06-22T10:36:59;5.30;;;2.77;;
75772;SDS011;64381;0.000;0.000;2023-06-22T10:39:24;5.97;;;2.90;;
75772;SDS011;64381;0.000;0.000;2023-06-22T10:41:49;6.13;;;3.20;;
75772;SDS011;64381;0.000;0.000;2023-06-22T10:44:15;6.20;;;2.70;;
75772;SDS011;64381;0.000;0.000;2023-06-22T10:46:40;5.93;;;2.90;;
75772;SDS011;64381;0.000;0.000;2023-06-22T10:49:05;6.20;;;2.80;;
75772;SDS011;64381;0.000;0.000;2023-06-22T10:51:30;5.67;;;2.87;;
75772;SDS011;64381;0.000;0.000;2023-06-22T10:53:55;5.43;;;2.70;;
75772;SDS011;64381;0.000;0.000;2023-06-22T10:56:21;7.37;;;3.10;;
75772;SDS011;64381;0.000;0.000;2023-06-22T10:58:46;6.77;;;3.00;;
75772;SDS011;64381;0.000;0.000;2023-06-22T11:01:11;5.80;;;2.80;;
75772;SDS011;64381;0.000;0.000;2023-06-22T11:03:36;5.20;;;3.00;;
75772;SDS011;64381;0.000;0.000;2023-06-22T11:06:02;6.07;;;3.20;;
75772;SDS011;64381;0.000;0.000;2023-06-22T11:08:27;6.67;;;3.60;;
75772;SDS011;64381;0.000;0.000;2023-06-22T11:10:52;5.80;;;2.87;;
75772;SDS011;64381;0.000;0.000;2023-06-22T11:13:17;6.80;;;3.00;;
75772;SDS011;64381;0.000;0.000;2023-06-22T11:15:43;5.93;;;3.20;;
75772;SDS011;64381;0.000;0.000;2023-06-22T11:18:08;5.65;;;2.88;;
75772;SDS011;64381;0.000;0.000;2023-06-22T11:20:33;6.17;;;3.43;;
75772;SDS011;64381;0.000;0.000;2023-06-22T11:22:59;6.73;;;2.80;;
75772;SDS011;64381;0.000;0.000;2023-06-22T11:25:24;5.93;;;3.00;;
75772;SDS011;64381;0.000;0.000;2023-06-22T11:27:49;6.00;;;3.10;;
75772;SDS011;64381;0.000;0.000;2023-06-22T11:30:16;7.43;;;3.40;;
75772;SDS011;64381;0.000;0.000;2023-06-22T11:32:41;6.60;;;3.00;;
75772;SDS011;64381;0.000;0.000;2023-06-22T11:35:06;7.30;;;3.17;;
75772;SDS011;64381;0.000;0.000;2023-06-22T11:37:32;5.97;;;2.90;;
75772;SDS011;64381;0.000;0.000;2023-06-22T11:39:57;6.93;;;3.20;;
75772;SDS011;64381;0.000;0.000;2023-06-22T11:42:22;6.47;;;3.20;;
75772;SDS011;64381;0.000;0.000;2023-06-22T11:44:47;8.13;;;3.37;;
75772;SDS011;64381;0.000;0.000;2023-06-22T11:47:13;6.10;;;3.40;;
75772;SDS011;64381;0.000;0.000;2023-06-22T11:49:38;5.97;;;3.20;;
75772;SDS011;64381;0.000;0.000;2023-06-22T11:52:03;6.67;;;3.13;;
75772;SDS011;64381;0.000;0.000;2023-06-22T11:54:28;6.10;;;2.95;;
75772;SDS011;64381;0.000;0.000;2023-06-22T11:56:54;5.77;;;3.13;;
75772;SDS011;64381;0.000;0.000;2023-06-22T11:59:19;6.00;;;3.20;;
75772;SDS011;64381;0.000;0.000;2023-06-22T12:01:44;8.47;;;3.20;;
75772;SDS011;64381;0.000;0.000;2023-06-22T12:04:09;6.30;;;3.30;;
75772;SDS011;64381;0.000;0.000;2023-06-22T12:06:35;6.57;;;3.40;;
75772;SDS011;64381;0.000;0.000;2023-06-22T12:09:02;5.70;;;3.22;;
75772;SDS011;64381;0.000;0.000;2023-06-22T12:11:28;5.67;;;3.07;;
75772;SDS011;64381;0.000;0.000;2023-06-22T12:13:53;7.18;;;3.53;;
75772;SDS011;64381;0.000;0.000;2023-06-22T12:16:18;6.63;;;3.30;;
75772;SDS011;64381;0.000;0.000;2023-06-22T12:18:44;6.20;;;3.10;;
75772;SDS011;64381;0.000;0.000;2023-06-22T12:21:09;6.93;;;3.43;;
75772;SDS011;64381;0.000;0.000;2023-06-22T12:23:34;6.20;;;3.23;;
75772;SDS011;64381;0.000;0.000;2023-06-22T12:25:59;6.57;;;3.20;;
75772;SDS011;64381;0.000;0.000;2023-06-22T12:28:25;6.67;;;3.23;;
75772;SDS011;64381;0.000;0.000;2023-06-22T12:30:50;6.43;;;3.13;;
75772;SDS011;64381;0.000;0.000;2023-06-22T12:33:15;6.83;;;3.30;;
75772;SDS011;64381;0.000;0.000;2023-06-22T12:35:40;5.47;;;3.30;;
75772;SDS011;64381;0.000;0.000;2023-06-22T12:38:05;6.23;;;3.27;;
75772;SDS011;64381;0.000;0.000;2023-06-22T12:40:31;6.77;;;3.17;;
75772;SDS011;64381;0.000;0.000;2023-06-22T12:42:56;6.17;;;3.20;;
75772;SDS011;64381;0.000;0.000;2023-06-22T12:45:21;7.67;;;3.40;;
75772;SDS011;64381;0.000;0.000;2023-06-22T12:47:46;6.43;;;3.30;;
75772;SDS011;64381;0.000;0.000;2023-06-22T12:50:11;6.40;;;3.70;;
75772;SDS011;64381;0.000;0.000;2023-06-22T12:52:37;5.90;;;3.20;;
75772;SDS011;64381;0.000;0.000;2023-06-22T12:55:04;6.80;;;3.60;;
75772;SDS011;64381;0.000;0.000;2023-06-22T12:57:30;6.57;;;3.17;;
75772;SDS011;64381;0.000;0.000;2023-06-22T12:59:55;6.93;;;3.70;;
75772;SDS011;64381;0.000;0.000;2023-06-22T13:02:21;7.30;;;3.83;;
75772;SDS011;64381;0.000;0.000;2023-06-22T13:04:46;6.77;;;3.27;;
75772;SDS011;64381;0.000;0.000;2023-06-22T13:07:11;6.97;;;3.50;;
75772;SDS011;64381;0.000;0.000;2023-06-22T13:09:36;6.83;;;3.90;;
75772;SDS011;64381;0.000;0.000;2023-06-22T13:12:02;6.37;;;3.63;;
75772;SDS011;64381;0.000;0.000;2023-06-22T13:14:27;6.90;;;3.63;;
75772;SDS011;64381;0.000;0.000;2023-06-22T13:16:52;6.33;;;3.50;;
75772;SDS011;64381;0.000;0.000;2023-06-22T13:19:17;5.87;;;3.30;;
75772;SDS011;64381;0.000;0.000;2023-06-22T13:21:42;7.27;;;3.30;;
75772;SDS011;64381;0.000;0.000;2023-06-22T13:24:08;6.23;;;3.60;;
75772;SDS011;64381;0.000;0.000;2023-06-22T13:26:33;6.93;;;4.10;;
75772;SDS011;64381;0.000;0.000;2023-06-22T13:28:58;7.57;;;3.57;;
75772;SDS011;64381;0.000;0.000;2023-06-22T13:31:24;7.73;;;4.00;;
75772;SDS011;64381;0.000;0.000;2023-06-22T13:33:49;8.30;;;3.70;;
75772;SDS011;64381;0.000;0.000;2023-06-22T13:36:14;6.07;;;3.67;;
75772;SDS011;64381;0.000;0.000;2023-06-22T13:38:39;6.83;;;3.40;;
75772;SDS011;64381;0.000;0.000;2023-06-22T13:41:05;7.27;;;3.30;;
75772;SDS011;64381;0.000;0.000;2023-06-22T13:43:31;7.88;;;3.90;;
75772;SDS011;64381;0.000;0.000;2023-06-22T13:45:56;5.97;;;3.40;;
75772;SDS011;64381;0.000;0.000;2023-06-22T13:48:21;6.53;;;3.77;;
75772;SDS011;64381;0.000;0.000;2023-06-22T13:50:46;6.27;;;3.83;;
75772;SDS011;64381;0.000;0.000;2023-06-22T13:53:12;6.10;;;3.60;;
75772;SDS011;64381;0.000;0.000;2023-06-22T13:55:37;6.93;;;3.80;;
75772;SDS011;64381;0.000;0.000;2023-06-22T13:58:02;6.40;;;3.60;;
75772;SDS011;64381;0.000;0.000;2023-06-22T14:00:27;7.30;;;3.70;;
75772;SDS011;64381;0.000;0.000;2023-06-22T14:02:53;7.73;;;3.87;;
75772;SDS011;64381;0.000;0.000;2023-06-22T14:05:18;6.57;;;3.65;;
75772;SDS011;64381;0.000;0.000;2023-06-22T14:07:47;5.85;;;3.50;;
75772;SDS011;64381;0.000;0.000;2023-06-22T14:10:12;7.90;;;3.47;;
75772;SDS011;64381;0.000;0.000;2023-06-22T14:12:40;6.00;;;3.70;;
75772;SDS011;64381;0.000;0.000;2023-06-22T14:15:06;7.68;;;3.60;;
75772;SDS011;64381;0.000;0.000;2023-06-22T14:17:31;5.90;;;3.43;;
75772;SDS011;64381;0.000;0.000;2023-06-22T14:19:57;8.27;;;3.63;;
75772;SDS011;64381;0.000;0.000;2023-06-22T14:22:25;6.87;;;3.90;;
75772;SDS011;64381;0.000;0.000;2023-06-22T14:24:50;6.33;;;3.50;;
75772;SDS011;64381;0.000;0.000;2023-06-22T14:27:16;5.23;;;3.20;;
75772;SDS011;64381;0.000;0.000;2023-06-22T14:29:42;6.50;;;3.80;;
75772;SDS011;64381;0.000;0.000;2023-06-22T14:32:07;6.57;;;3.50;;
75772;SDS011;64381;0.000;0.000;2023-06-22T14:34:34;7.33;;;3.77;;
75772;SDS011;64381;0.000;0.000;2023-06-22T14:36:59;5.82;;;3.78;;
75772;SDS011;64381;0.000;0.000;2023-06-22T14:39:25;6.17;;;3.90;;
75772;SDS011;64381;0.000;0.000;2023-06-22T14:41:50;7.27;;;3.37;;
75772;SDS011;64381;0.000;0.000;2023-06-22T14:44:15;6.63;;;4.17;;
75772;SDS011;64381;0.000;0.000;2023-06-22T14:46:41;6.07;;;3.33;;
75772;SDS011;64381;0.000;0.000;2023-06-22T14:49:06;6.67;;;3.90;;
75772;SDS011;64381;0.000;0.000;2023-06-22T14:51:31;6.47;;;3.43;;
75772;SDS011;64381;0.000;0.000;2023-06-22T14:53:56;5.53;;;3.57;;
75772;SDS011;64381;0.000;0.000;2023-06-22T14:56:21;7.00;;;3.60;;
75772;SDS011;64381;0.000;0.000;2023-06-22T14:58:47;6.67;;;3.47;;